ZBTJ/TSN METAR and TAF weather

Enter ICAO airport designator
Station Type Date Time Source
ZBTJ METAR 2020/04/07 05:30 UTC NOAA

ZBTJ 070530Z 15006MPS 120V190 CAVOK 15/M06 Q1021 NOSIG


Station Type Date Time Source
ZBTJ Decoded METAR 2020/04/07 05:30 UTC NOAA

Tianjin / Zhangguizhu, China (ZBTJ) 39-11N 117-21E
Apr 07, 2020 - 01:30 AM EDT / 2020.04.07 0530 UTC
Wind: from the SSE (150 degrees) at 13 MPH (12 KT) (direction variable):0
Visibility: greater than 7 mile(s):0
Temperature: 59 F (15 C)
Dew Point: 21 F (-6 C)
Relative Humidity: 22%
Pressure (altimeter): 30.15 in. Hg (1021 hPa)
ob: ZBTJ 070530Z 15006MPS 120V190 CAVOK 15/M06 Q1021 NOSIG
cycle: 5

Station Type Date Time Source
ZBTJ TAF 2020/04/07 06:07 UTC NOAA

TAF ZBTJ 070300Z 0706/0806 15004MPS CAVOK TX16/0806Z TN05/0722Z
BECMG 0802/0803 09006MPS

Example: see airport list